Airfield :
LOGIN :

Register | Disclaimer

   EN    FR    IT 

 










Legend :    VFR   Marginal VFR   IFR   Intensive IFR   Very Intensive IFR
Visi :
Ceiling :
>= 8 km
>= 3000ft
5 to 8 km
1000 to 3000 ft
1500m to 5 km
500 to 1000 ft
800 to 1500m
200 to 500 ft
< 800m
< 200 ft
Symbols :   Thunderstorms  Fog  Heavy snow  Heavy precipitations  Wind > 20 kt
SIGMETs :     Misc.  Thunderstorms  Icing  Turbulence  Mountain Waves  Volcanic Ashes






- Airport Elevation : 348 ft
- IATA code : STN


EGSS - London Stansted

CURRENT METAR :
  • 130420Z AUTO 29012KT 9999 -RA BKN008/// OVC021/// //////TCU 06/05 Q0971

EXPIRED METARs :
  • 130350Z AUTO 31006KT 9999 -RA BKN007/// OVC023/// //////TCU 06/05 Q0971
  • 130320Z AUTO 31007KT 9999 -RA SCT012/// BKN018/// BKN025/// //////TCU 06/05 Q0971
  • 130250Z AUTO 29007KT 250V330 9999 -RA BKN012/// BKN021/// OVC031/// //////TCU 06/05 Q0970
  • 130220Z AUTO 29006KT 260V320 9000 -RA SCT004/// BKN008/// BKN018/// //////TCU 06/06 Q0970 RERA
  • 130150Z AUTO 13001KT 3500 -RA BKN004/// BKN009/// OVC028/// //////TCU 06/06 Q0970 RERA

TAF AMD TAF EGSS
Valid from the 13 at 01:00 until the 14 at 06:00 UTC


130155Z 1301/1406 20008KT 9999 FEW004 SCT012
BECMG 1301/1304 26015KT
TEMPO 1301/1305 6000 SHRA BKN010
PROB30
TEMPO 1301/1304 3000 +SHRA BKN004
TEMPO 1302/1324 27018G28KT
PROB30
TEMPO 1304/1307 BKN007
ATIS : +44 1279 669 325



MET'MAP, your aeronautical weather chart ! - Copyright ORBIFLY December 2007 - Disclaimer

ORBIFLY MET'MAP TEAM :

Programming & Development : Alexandra Zaïnal
Concept & original design : Baudouin d'Aumeries
Assistance for programming : Marc-Olivier Méhu
Technical & hardware support : Manuel Goepfert

Contact : metmap@orbifly.com




SOURCES & CREDITS :

   NOAA